Forside
METAR-TAF:

METAR-TAF

Lufthavne :

RAF Northolt

Northolt, England

Breddekreds: 51-33N, længdekreds: 000-25W, højde: 38 m

Aktuelle vejr

Denne rapport blev lavet for 44 minutter siden, kl. 12:20 UTC
Vind 12 kt fra østnordøst
Temperatur 9°C
Fugtighed 49%
Tryk 1031 hPa
Sigt 10 km eller mere
Brudte skyer i en højde af 4300 ft

METAR: EGWU 311220Z 07012KT 9999 BKN043 09/M01 Q1031 NOSIG RMK BLU BLU

Tid: 14:04 (13:04 UTC)

Vejrudsigter

Denne rapport blev lavet for 2 timer og 34 minutter siden, kl. 10:30 UTC
Foreløbig gælder fra 31 på 12 UTC til 01 på 06 UTC
Vind 12 kt fra østnordøst
Sigt 10 km eller mere
Spredte skyer i en højde af 4000 ft

TAF: EGWU 311030Z 3112/0106 06012KT 9999 SCT040

Vejrobservationer og prognoser fra mere end 4000 lufthavne (METAR og TAF).

De gule og røde prikker repræsenterer de meteorologiske stationer.

Flyt musen over at se navnet på stationen.

Så klik over at se vejr observationer og prognoser.

At skifte det kort: Klik på de grønne knapper med et sort kors for at zoome ind; på den grønne knap med en bindestreg for at zoome ud; eller på de grønne pile for tilstødende kort.


METAR-TAF: